< < Back
Terminal Aerodrome Forecast


Current Version              Previous Versions:   1  2  3  4  5  6  7  8  9  

Terminal Aerodrome Forecast

448
FTUS42 KTAE 281739
TAFTLH
TAF
KTLH 281739Z 2818/2918 32011KT P6SM SCT250
     FM290300 33003KT P6SM SCT100 SCT250
     FM291400 07005KT P6SM SCT080 SCT100=



Latest METAR

484
SAUS80 KWBC 281800 RRB
MTRTLH
METAR KTLH 281753Z 30012G19KT 10SM FEW250 16/M02 A3020 RMK AO2 SLP225
T01611022 10161 20067 58007


USA.gov is the U.S. government's official web portal to all federal, state and local government web resources and services.